Time,TemperatureF,DewpointF,PressureIn,WindDirection,WindDirectionDegrees,WindSpeedMPH,WindSpeedGustMPH,Humidity,HourlyPrecipIn,Conditions,Clouds,dailyrainin,SolarRadiationWatts/m^2,SoftwareType,DateUTC
2013-11-22 00:02:00,42.0,42.0,-100.00,SW,228,1.0,3.0,99,0.00,,,0.00,0.000000,,2013-11-22 05:02:00,
2013-11-22 00:12:00,42.0,42.0,-100.00,SW,228,1.0,3.0,99,0.00,,,0.00,0.000000,,2013-11-22 05:12:00,
2013-11-22 00:22:00,42.0,42.0,-100.00,SW,228,1.0,3.0,99,0.00,,,0.00,0.000000,,2013-11-22 05:22:00,
2013-11-22 00:53:00,40.0,40.0,-100.00,WSW,237,0.0,2.0,99,0.00,,,0.00,0.000000,,2013-11-22 05:53:00,
2013-11-22 01:02:00,40.0,40.0,-100.00,WSW,237,0.0,2.0,99,0.00,,,0.00,0.000000,,2013-11-22 06:02:00,
2013-11-22 01:12:00,40.0,40.0,-100.00,WSW,237,0.0,2.0,99,0.00,,,0.00,0.000000,,2013-11-22 06:12:00,
2013-11-22 01:22:00,40.0,40.0,-100.00,WSW,237,0.0,2.0,99,0.00,,,0.00,0.000000,,2013-11-22 06:22:00,
2013-11-22 01:52:00,40.0,40.0,-100.00,SSE,148,0.0,0.0,100,0.00,,,0.00,0.000000,,2013-11-22 06:52:00,
2013-11-22 02:02:00,40.0,40.0,-100.00,SSE,148,0.0,0.0,100,0.00,,,0.00,0.000000,,2013-11-22 07:02:00,
2013-11-22 02:12:00,40.0,40.0,-100.00,SSE,148,0.0,0.0,100,0.00,,,0.00,0.000000,,2013-11-22 07:12:00,
2013-11-22 02:22:00,40.0,40.0,-100.00,SSE,148,0.0,0.0,100,0.00,,,0.00,0.000000,,2013-11-22 07:22:00,
2013-11-22 02:52:00,43.0,43.0,-100.00,SW,233,1.0,2.0,100,0.00,,,0.00,0.000000,,2013-11-22 07:52:00,
2013-11-22 03:01:00,43.0,43.0,-100.00,SW,233,1.0,2.0,100,0.00,,,0.00,0.000000,,2013-11-22 08:01:00,
2013-11-22 03:12:00,43.0,43.0,-100.00,SW,233,1.0,2.0,100,0.00,,,0.00,0.000000,,2013-11-22 08:12:00,
2013-11-22 03:22:00,43.0,43.0,-100.00,SW,233,1.0,2.0,100,0.00,,,0.00,0.000000,,2013-11-22 08:22:00,
2013-11-22 03:52:00,48.0,48.0,-100.00,SSE,157,1.0,5.0,100,0.00,,,0.00,0.000000,,2013-11-22 08:52:00,
2013-11-22 04:02:00,48.0,48.0,-100.00,SSE,157,1.0,5.0,100,0.00,,,0.00,0.000000,,2013-11-22 09:02:00,
2013-11-22 04:12:00,48.0,48.0,-100.00,SSE,157,1.0,5.0,100,0.00,,,0.00,0.000000,,2013-11-22 09:12:00,
2013-11-22 04:22:00,48.0,48.0,-100.00,SSE,157,1.0,5.0,100,0.00,,,0.00,0.000000,,2013-11-22 09:22:00,
2013-11-22 04:53:00,47.0,47.0,-100.00,SW,232,0.0,5.0,100,0.00,,,0.00,0.000000,,2013-11-22 09:53:00,
2013-11-22 05:03:00,47.0,47.0,-100.00,SW,232,0.0,5.0,100,0.00,,,0.00,0.000000,,2013-11-22 10:03:00,
2013-11-22 05:13:00,47.0,47.0,-100.00,SW,232,0.0,5.0,100,0.00,,,0.00,0.000000,,2013-11-22 10:13:00,
2013-11-22 05:23:00,47.0,47.0,-100.00,SW,232,0.0,5.0,100,0.00,,,0.00,0.000000,,2013-11-22 10:23:00,
2013-11-22 05:53:00,47.0,47.0,-100.00,SSE,159,0.0,3.0,100,0.00,,,0.00,0.000000,,2013-11-22 10:53:00,
2013-11-22 06:02:00,47.0,47.0,-100.00,SSE,159,0.0,3.0,100,0.00,,,0.00,0.000000,,2013-11-22 11:02:00,
2013-11-22 06:12:00,47.0,47.0,-100.00,SSE,159,0.0,3.0,100,0.00,,,0.00,0.000000,,2013-11-22 11:12:00,
2013-11-22 06:22:00,47.0,47.0,-100.00,SSE,159,0.0,3.0,100,0.00,,,0.00,0.000000,,2013-11-22 11:22:00,
2013-11-22 06:52:00,49.0,49.0,-100.00,SW,227,3.0,6.0,100,0.00,,,0.00,0.000000,,2013-11-22 11:52:00,
2013-11-22 07:02:00,49.0,49.0,-100.00,SW,227,3.0,6.0,100,0.00,,,0.00,0.000000,,2013-11-22 12:02:00,
2013-11-22 07:12:00,49.0,49.0,-100.00,SW,227,3.0,6.0,100,0.00,,,0.00,0.000000,,2013-11-22 12:12:00,
2013-11-22 07:22:00,49.0,49.0,-100.00,SW,227,3.0,6.0,100,0.00,,,0.00,0.000000,,2013-11-22 12:22:00,
2013-11-22 07:52:00,50.0,50.0,-100.00,SW,220,3.0,7.0,100,0.00,,,-99.99,3.000000,,2013-11-22 12:52:00,
2013-11-22 08:02:00,50.0,50.0,-100.00,SW,220,3.0,7.0,100,0.00,,,-99.99,3.000000,,2013-11-22 13:02:00,
2013-11-22 08:12:00,50.0,50.0,-100.00,SW,220,3.0,7.0,100,0.00,,,-99.99,3.000000,,2013-11-22 13:12:00,
2013-11-22 08:22:00,50.0,50.0,-100.00,SW,220,3.0,7.0,100,0.00,,,-99.99,3.000000,,2013-11-22 13:22:00,
2013-11-22 08:52:00,52.0,51.0,-100.00,SW,230,5.0,9.0,96,0.00,,,0.00,42.000000,,2013-11-22 13:52:00,
2013-11-22 09:02:00,52.0,51.0,-100.00,SW,230,5.0,9.0,96,0.00,,,0.00,42.000000,,2013-11-22 14:02:00,
2013-11-22 09:12:00,52.0,51.0,-100.00,SW,230,5.0,9.0,96,0.00,,,0.00,42.000000,,2013-11-22 14:12:00,
2013-11-22 09:22:00,52.0,51.0,-100.00,SW,230,5.0,9.0,96,0.00,,,0.00,42.000000,,2013-11-22 14:22:00,
2013-11-22 09:52:00,56.0,53.0,-100.00,SW,230,8.0,15.0,90,0.00,,,0.00,116.000000,,2013-11-22 14:52:00,
2013-11-22 10:02:00,56.0,53.0,-100.00,SW,230,8.0,15.0,90,0.00,,,0.00,116.000000,,2013-11-22 15:02:00,
2013-11-22 10:11:00,56.0,53.0,-100.00,SW,230,8.0,15.0,90,0.00,,,0.00,116.000000,,2013-11-22 15:11:00,
2013-11-22 10:22:00,56.0,53.0,-100.00,SW,230,8.0,15.0,90,0.00,,,0.00,116.000000,,2013-11-22 15:22:00,
2013-11-22 10:54:00,59.0,54.0,-100.00,SW,231,10.0,19.0,84,0.00,,,0.00,192.000000,,2013-11-22 15:54:00,
2013-11-22 11:03:00,59.0,54.0,-100.00,SW,231,10.0,19.0,84,0.00,,,0.00,192.000000,,2013-11-22 16:03:00,
2013-11-22 11:13:00,59.0,54.0,-100.00,SW,231,10.0,19.0,84,0.00,,,0.00,192.000000,,2013-11-22 16:13:00,
2013-11-22 11:23:00,59.0,54.0,-100.00,SW,231,10.0,19.0,84,0.00,,,0.00,192.000000,,2013-11-22 16:23:00,
2013-11-22 11:53:00,62.0,54.0,-100.00,WSW,254,9.0,21.0,76,0.00,,,0.00,286.000000,,2013-11-22 16:53:00,
2013-11-22 12:03:00,62.0,54.0,-100.00,WSW,254,9.0,21.0,76,0.00,,,0.00,286.000000,,2013-11-22 17:03:00,
2013-11-22 12:12:00,62.0,54.0,-100.00,WSW,254,9.0,21.0,76,0.00,,,0.00,286.000000,,2013-11-22 17:12:00,
2013-11-22 12:22:00,62.0,54.0,-100.00,WSW,254,9.0,21.0,76,0.00,,,0.00,286.000000,,2013-11-22 17:22:00,
2013-11-22 12:53:00,61.0,53.0,-100.00,WSW,252,10.0,20.0,76,0.00,,,0.00,201.000000,,2013-11-22 17:53:00,
2013-11-22 13:02:00,61.0,53.0,-100.00,WSW,252,10.0,20.0,76,0.00,,,0.00,201.000000,,2013-11-22 18:02:00,
2013-11-22 13:12:00,61.0,53.0,-100.00,WSW,252,10.0,20.0,76,0.00,,,0.00,201.000000,,2013-11-22 18:12:00,
2013-11-22 13:22:00,61.0,53.0,-100.00,WSW,252,10.0,20.0,76,0.00,,,0.00,201.000000,,2013-11-22 18:22:00,
2013-11-22 13:52:00,61.0,54.0,-100.00,WSW,241,7.0,16.0,77,0.00,,,0.00,114.000000,,2013-11-22 18:52:00,
2013-11-22 14:01:00,61.0,54.0,-100.00,WSW,241,7.0,16.0,77,0.00,,,0.00,114.000000,,2013-11-22 19:01:00,
2013-11-22 14:11:00,61.0,54.0,-100.00,WSW,241,7.0,16.0,77,0.00,,,0.00,114.000000,,2013-11-22 19:11:00,
2013-11-22 14:22:00,61.0,54.0,-100.00,WSW,241,7.0,16.0,77,0.00,,,0.00,114.000000,,2013-11-22 19:22:00,
2013-11-22 14:53:00,61.0,53.0,-100.00,WSW,245,6.0,16.0,76,0.00,,,0.00,125.000000,,2013-11-22 19:53:00,
2013-11-22 15:02:00,61.0,53.0,-100.00,WSW,245,6.0,16.0,76,0.00,,,0.00,125.000000,,2013-11-22 20:02:00,
2013-11-22 15:11:00,61.0,53.0,-100.00,WSW,245,6.0,16.0,76,0.00,,,0.00,125.000000,,2013-11-22 20:11:00,
2013-11-22 15:22:00,61.0,53.0,-100.00,WSW,245,6.0,16.0,76,0.00,,,0.00,125.000000,,2013-11-22 20:22:00,
2013-11-22 15:52:00,59.0,53.0,-100.00,SW,234,7.0,14.0,81,0.00,,,0.00,71.000000,,2013-11-22 20:52:00,
2013-11-22 16:02:00,59.0,53.0,-100.00,SW,234,7.0,14.0,81,0.00,,,0.00,71.000000,,2013-11-22 21:02:00,
2013-11-22 16:11:00,59.0,53.0,-100.00,SW,234,7.0,14.0,81,0.00,,,0.00,71.000000,,2013-11-22 21:11:00,
2013-11-22 16:22:00,59.0,53.0,-100.00,SW,234,7.0,14.0,81,0.00,,,0.00,71.000000,,2013-11-22 21:22:00,
2013-11-22 16:53:00,58.0,53.0,-100.00,SW,232,5.0,10.0,84,0.00,,,0.00,30.000000,,2013-11-22 21:53:00,
2013-11-22 17:03:00,58.0,53.0,-100.00,SW,232,5.0,10.0,84,0.00,,,0.00,30.000000,,2013-11-22 22:03:00,
2013-11-22 17:13:00,58.0,53.0,-100.00,SW,232,5.0,10.0,84,0.00,,,0.00,30.000000,,2013-11-22 22:13:00,
2013-11-22 17:23:00,58.0,53.0,-100.00,SW,232,5.0,10.0,84,0.00,,,0.00,30.000000,,2013-11-22 22:23:00,
2013-11-22 17:53:00,57.0,54.0,-100.00,SW,232,2.0,8.0,90,0.00,,,0.00,1.000000,,2013-11-22 22:53:00,
2013-11-22 18:02:00,57.0,54.0,-100.00,SW,232,2.0,8.0,90,0.00,,,0.00,1.000000,,2013-11-22 23:02:00,
2013-11-22 18:12:00,57.0,54.0,-100.00,SW,232,2.0,8.0,90,0.00,,,0.00,1.000000,,2013-11-22 23:12:00,
2013-11-22 18:22:00,57.0,54.0,-100.00,SW,232,2.0,8.0,90,0.00,,,0.00,1.000000,,2013-11-22 23:22:00,
2013-11-22 18:53:00,55.0,54.0,-100.00,SW,214,1.0,3.0,98,0.03,,,0.03,0.000000,,2013-11-22 23:53:00,
2013-11-22 19:02:00,55.0,54.0,-100.00,SW,214,1.0,3.0,98,0.03,,,0.03,0.000000,,2013-11-23 00:02:00,
2013-11-22 19:12:00,55.0,54.0,-100.00,SW,214,1.0,3.0,98,0.03,,,0.03,0.000000,,2013-11-23 00:12:00,
2013-11-22 19:22:00,55.0,54.0,-100.00,SW,214,1.0,3.0,98,0.03,,,0.03,0.000000,,2013-11-23 00:22:00,
2013-11-22 19:52:00,55.0,55.0,-100.00,South,173,1.0,4.0,100,0.02,,,0.05,0.000000,,2013-11-23 00:52:00,
2013-11-22 20:02:00,55.0,55.0,-100.00,South,173,1.0,4.0,100,0.02,,,0.05,0.000000,,2013-11-23 01:02:00,
2013-11-22 20:11:00,55.0,55.0,-100.00,South,173,1.0,4.0,100,0.02,,,0.05,0.000000,,2013-11-23 01:11:00,
2013-11-22 20:22:00,55.0,55.0,-100.00,South,173,1.0,4.0,100,0.02,,,0.05,0.000000,,2013-11-23 01:22:00,
2013-11-22 20:53:00,55.0,55.0,-100.00,SW,225,1.0,4.0,100,0.00,,,0.05,0.000000,,2013-11-23 01:53:00,
2013-11-22 21:02:00,55.0,55.0,-100.00,SW,225,1.0,4.0,100,0.00,,,0.05,0.000000,,2013-11-23 02:02:00,
2013-11-22 21:11:00,55.0,55.0,-100.00,SW,225,1.0,4.0,100,0.00,,,0.05,0.000000,,2013-11-23 02:11:00,
2013-11-22 21:22:00,55.0,55.0,-100.00,SW,225,1.0,4.0,100,0.00,,,0.05,0.000000,,2013-11-23 02:22:00,
2013-11-22 21:53:00,56.0,56.0,-100.00,SW,234,4.0,7.0,100,0.03,,,0.08,0.000000,,2013-11-23 02:53:00,
2013-11-22 22:02:00,56.0,56.0,-100.00,SW,234,4.0,7.0,100,0.03,,,0.08,0.000000,,2013-11-23 03:02:00,
2013-11-22 22:12:00,56.0,56.0,-100.00,SW,234,4.0,7.0,100,0.03,,,0.08,0.000000,,2013-11-23 03:12:00,
2013-11-22 22:22:00,56.0,56.0,-100.00,SW,234,4.0,7.0,100,0.03,,,0.08,0.000000,,2013-11-23 03:22:00,
2013-11-22 22:53:00,58.0,58.0,-100.00,West,263,5.0,11.0,100,0.13,,,0.21,0.000000,,2013-11-23 03:53:00,
2013-11-22 23:03:00,58.0,58.0,-100.00,West,263,5.0,11.0,100,0.13,,,0.21,0.000000,,2013-11-23 04:03:00,
2013-11-22 23:13:00,58.0,58.0,-100.00,West,263,5.0,11.0,100,0.13,,,0.21,0.000000,,2013-11-23 04:13:00,
2013-11-22 23:23:00,58.0,58.0,-100.00,West,263,5.0,11.0,100,0.13,,,0.21,0.000000,,2013-11-23 04:23:00,
2013-11-22 23:53:00,57.0,57.0,-100.00,West,269,5.0,9.0,100,0.01,,,0.22,0.000000,,2013-11-23 04:53:00,